LFRH

Lorient South Brittany (Bretagne Sud) Airport

Lorient/Lann/Bihoué, France
TAF LFRH 141700Z 1418/1518 10010KT 9999 BKN012 BECMG 1422/1424 11015KT 3000 RADZ BKN003 OVC008 BECMG 1502/1504 12016G28KT TEMPO 1502/1509 1000 +RADZ BKN002 BKN005 OVC010CB PROB40 TEMPO 1502/1510 VV/// BECMG 1507/1509 21015G25KT BECMG 1516/1518 26020G30KT 9999 NSW BKN020 BKN050
Issued Valid From Valid To
Dec-14 @ 17:00 UTC
(6 hours ago)
Dec-14 @ 18:00 UTC
(5 hours ago)
Dec-15 @ 18:00 UTC
(in 19 hours)
Expired Click to View Dec-14 @ 18:00 to Dec-14 @ 22:00
TAF LFRH 141700Z 1418/1518 10010KT 9999 BKN012
Wind Visibility Clouds
100° at 10 knots 10,000+ meters
  • Broken at 1,200' AGL
Becoming Dec-14 @ 22:00 to Dec-15 @ 02:00
BECMG 1422/1424 11015KT 3000 RADZ BKN003 OVC008
Wind Visibility Clouds Conditions
110° at 15 knots 2,993 meters
  • Broken at 300' AGL
  • Overcast at 800' AGL
  • Rain
  • Drizzle
Becoming Dec-15 @ 02:00 to Dec-15 @ 07:00
BECMG 1502/1504 12016G28KT
Wind Visibility Clouds Conditions
120° at 16 knots
 Gusting to 28 knots
2,993 meters
  • Broken at 300' AGL
  • Overcast at 800' AGL
  • Rain
  • Drizzle
Temporary Dec-15 @ 02:00 to Dec-15 @ 09:00
TEMPO 1502/1509 1000 +RADZ BKN002 BKN005 OVC010CB
Visibility Clouds Conditions
998 meters
  • Broken at 200' AGL
  • Broken at 500' AGL
  • Overcast at 1,000' AGL
  • Heavy Rain
  • Heavy Drizzle
Temporary  (Probability 40%) Dec-15 @ 02:00 to Dec-15 @ 10:00
PROB40 TEMPO 1502/1510 VV///
Becoming Dec-15 @ 07:00 to Dec-15 @ 16:00
BECMG 1507/1509 21015G25KT
Wind Visibility Clouds Conditions
210° at 15 knots
 Gusting to 25 knots
2,993 meters
  • Broken at 300' AGL
  • Overcast at 800' AGL
  • Rain
  • Drizzle
Becoming Dec-15 @ 16:00 to Dec-15 @ 18:00
BECMG 1516/1518 26020G30KT 9999 NSW BKN020 BKN050
Wind Visibility Clouds Conditions
260° at 20 knots
 Gusting to 30 knots
10,000+ meters
  • Broken at 2,000' AGL
  • Broken at 5,000' AGL
TAF LFRH 141700Z 1418/1518 10010KT 9999 BKN012 BECMG 1422/1424 11015KT 3000 RADZ BKN003 OVC008 BECMG 1502/1504 12016G28KT TEMPO 1502/1509 1000 +RADZ BKN002 BKN005 OVC010CB PROB40 TEMPO 1502/1510 VV/// BECMG 1507/1509 21015G25KT BECMG 1516/1518 26020G30KT 9999 NSW BKN020 BKN050
Issued Dec-14 @ 17:00 UTC
(6 hours ago)
Valid From Dec-14 @ 18:00 UTC
(5 hours ago)
Valid To Dec-15 @ 18:00 UTC
(in 19 hours)
Dec-14 @ 18:00 - Dec-14 @ 22:00
Wind Visibility
100° at 10 knots 10,000+ meters
Clouds
  • Broken at 1,200' AGL
Becoming Dec-14 @ 22:00 - Dec-15 @ 02:00
Wind Visibility
110° at 15 knots 2,993 meters
Clouds
  • Broken at 300' AGL
  • Overcast at 800' AGL
Conditions
  • Rain
  • Drizzle
Becoming Dec-15 @ 02:00 - Dec-15 @ 07:00
Wind Visibility
120° at 16 knots
 Gusting to 28 knots
2,993 meters
Clouds
  • Broken at 300' AGL
  • Overcast at 800' AGL
Conditions
  • Rain
  • Drizzle
Temporary Dec-15 @ 02:00 - Dec-15 @ 09:00
Clouds
  • Broken at 200' AGL
  • Broken at 500' AGL
  • Overcast at 1,000' AGL
Conditions
  • Heavy Rain
  • Heavy Drizzle
Probability 40% Temporary Dec-15 @ 02:00 - Dec-15 @ 10:00
Becoming Dec-15 @ 07:00 - Dec-15 @ 16:00
Wind Visibility
210° at 15 knots
 Gusting to 25 knots
2,993 meters
Clouds
  • Broken at 300' AGL
  • Overcast at 800' AGL
Conditions
  • Rain
  • Drizzle
Becoming Dec-15 @ 16:00 - Dec-15 @ 18:00
Wind Visibility
260° at 20 knots
 Gusting to 30 knots
10,000+ meters
Clouds
  • Broken at 2,000' AGL
  • Broken at 5,000' AGL
Conditions